Strona główna
METAR-TAF:

METAR-TAF

Lotnisko :

Lonesome Pine Airport

Wise, Wirginia, Stany Zjednoczone

Szerokość geograficzna: 36-59N, Długość geograficzna: 082-32W, wysokość: 817 m

Aktualna obserwacja pogody

Raport powstał 24 minut temu, godzina 13:55 UTC
Wiatr 3 kt od północ
Temperatura 16°C
Wilgotność 100%
Ciśnienie 1023 hPa
Widzialność: 0.8 km
Zachmurzenie całkowite na wysokości 300 ft
mgła

METAR: KLNP 241355Z AUTO 01003KT 1/2SM FG OVC003 16/16 A3021 RMK AO2

czas: 10:19 (14:19 UTC)


TAF: brakujący

Obserwacja i prognoza pogody dla ponad 4000 lotnisk (raport METAR i TAF).

Dostępne stacje oznaczono żółtymi i czerwonymi punktami na mapie.

Najedź kursorem aby zobaczyć nazwę stacji.

Kliknij aby zobaczyć obserwacje i prognozy pogody.

Aby zmienić mapę: kliknij na zielony przycisk z czarnym krzyżykiem, aby powiększyć; na zielony przycisk z myślnikiem, aby pomniejszyć; na zielone strzałki, aby przejść do map sąsiednich.


METAR-TAF: